sensor_id;sensor_type;location;lat;lon;timestamp;P1;durP1;ratioP1;P2;durP2;ratioP2
17564;SDS011;62994;52.126;5.596;2023-11-21T00:01:10;11.85;;;9.05;;
17564;SDS011;62994;52.126;5.596;2023-11-21T00:03:37;16.13;;;9.90;;
17564;SDS011;62994;52.126;5.596;2023-11-21T00:06:37;9.75;;;8.73;;
17564;SDS011;62994;52.126;5.596;2023-11-21T00:09:06;11.13;;;9.80;;
17564;SDS011;62994;52.126;5.596;2023-11-21T00:11:33;11.48;;;9.38;;
17564;SDS011;62994;52.126;5.596;2023-11-21T00:14:00;13.23;;;9.57;;
17564;SDS011;62994;52.126;5.596;2023-11-21T00:16:28;13.05;;;9.32;;
17564;SDS011;62994;52.126;5.596;2023-11-21T00:18:55;11.48;;;9.57;;
17564;SDS011;62994;52.126;5.596;2023-11-21T00:21:22;10.80;;;9.82;;
17564;SDS011;62994;52.126;5.596;2023-11-21T00:23:50;12.70;;;10.15;;
17564;SDS011;62994;52.126;5.596;2023-11-21T00:26:17;13.15;;;9.98;;
17564;SDS011;62994;52.126;5.596;2023-11-21T00:28:44;11.68;;;9.18;;
17564;SDS011;62994;52.126;5.596;2023-11-21T00:31:11;11.30;;;9.52;;
17564;SDS011;62994;52.126;5.596;2023-11-21T00:33:38;10.73;;;9.07;;
17564;SDS011;62994;52.126;5.596;2023-11-21T00:36:06;10.20;;;8.95;;
17564;SDS011;62994;52.126;5.596;2023-11-21T00:38:34;11.65;;;8.88;;
17564;SDS011;62994;52.126;5.596;2023-11-21T00:41:04;13.30;;;8.88;;
17564;SDS011;62994;52.126;5.596;2023-11-21T00:43:31;11.18;;;9.82;;
17564;SDS011;62994;52.126;5.596;2023-11-21T00:45:58;13.75;;;9.73;;
17564;SDS011;62994;52.126;5.596;2023-11-21T00:48:25;12.35;;;9.85;;
17564;SDS011;62994;52.126;5.596;2023-11-21T00:50:52;15.80;;;10.40;;
17564;SDS011;62994;52.126;5.596;2023-11-21T00:53:21;11.57;;;10.02;;
17564;SDS011;62994;52.126;5.596;2023-11-21T00:55:51;13.80;;;8.98;;
17564;SDS011;62994;52.126;5.596;2023-11-21T00:58:23;11.13;;;9.27;;
17564;SDS011;62994;52.126;5.596;2023-11-21T01:00:50;11.10;;;9.82;;
17564;SDS011;62994;52.126;5.596;2023-11-21T01:03:17;10.27;;;9.27;;
17564;SDS011;62994;52.126;5.596;2023-11-21T01:05:44;16.67;;;9.18;;
17564;SDS011;62994;52.126;5.596;2023-11-21T01:08:12;33.47;;;10.07;;
17564;SDS011;62994;52.126;5.596;2023-11-21T01:10:39;10.48;;;9.43;;
17564;SDS011;62994;52.126;5.596;2023-11-21T01:13:06;15.48;;;9.90;;
17564;SDS011;62994;52.126;5.596;2023-11-21T01:15:34;16.20;;;9.57;;
17564;SDS011;62994;52.126;5.596;2023-11-21T01:18:01;14.82;;;9.48;;
17564;SDS011;62994;52.126;5.596;2023-11-21T01:20:29;11.25;;;9.65;;
17564;SDS011;62994;52.126;5.596;2023-11-21T01:22:56;16.98;;;11.18;;
17564;SDS011;62994;52.126;5.596;2023-11-21T01:25:23;12.02;;;8.50;;
17564;SDS011;62994;52.126;5.596;2023-11-21T01:27:51;11.50;;;9.30;;
17564;SDS011;62994;52.126;5.596;2023-11-21T01:30:18;10.95;;;9.48;;
17564;SDS011;62994;52.126;5.596;2023-11-21T01:32:46;10.85;;;9.80;;
17564;SDS011;62994;52.126;5.596;2023-11-21T01:35:13;13.38;;;9.88;;
17564;SDS011;62994;52.126;5.596;2023-11-21T01:37:40;13.25;;;9.43;;
17564;SDS011;62994;52.126;5.596;2023-11-21T01:40:08;15.27;;;10.25;;
17564;SDS011;62994;52.126;5.596;2023-11-21T01:42:38;14.77;;;10.48;;
17564;SDS011;62994;52.126;5.596;2023-11-21T01:45:06;15.38;;;10.57;;
17564;SDS011;62994;52.126;5.596;2023-11-21T01:47:34;16.70;;;10.10;;
17564;SDS011;62994;52.126;5.596;2023-11-21T01:50:04;17.85;;;10.63;;
17564;SDS011;62994;52.126;5.596;2023-11-21T01:52:33;13.88;;;10.68;;
17564;SDS011;62994;52.126;5.596;2023-11-21T01:55:01;15.32;;;10.90;;
17564;SDS011;62994;52.126;5.596;2023-11-21T01:57:29;12.75;;;9.85;;
17564;SDS011;62994;52.126;5.596;2023-11-21T01:59:56;11.05;;;9.95;;
17564;SDS011;62994;52.126;5.596;2023-11-21T02:02:29;12.38;;;9.93;;
17564;SDS011;62994;52.126;5.596;2023-11-21T02:04:56;14.95;;;10.15;;
17564;SDS011;62994;52.126;5.596;2023-11-21T02:07:24;13.75;;;10.35;;
17564;SDS011;62994;52.126;5.596;2023-11-21T02:09:51;11.90;;;10.13;;
17564;SDS011;62994;52.126;5.596;2023-11-21T02:12:18;13.70;;;10.70;;
17564;SDS011;62994;52.126;5.596;2023-11-21T02:14:45;14.40;;;11.60;;
17564;SDS011;62994;52.126;5.596;2023-11-21T02:17:13;11.82;;;10.43;;
17564;SDS011;62994;52.126;5.596;2023-11-21T02:19:40;12.55;;;10.27;;
17564;SDS011;62994;52.126;5.596;2023-11-21T02:22:08;10.57;;;9.55;;
17564;SDS011;62994;52.126;5.596;2023-11-21T02:24:37;11.80;;;9.85;;
17564;SDS011;62994;52.126;5.596;2023-11-21T02:27:07;16.85;;;10.55;;
17564;SDS011;62994;52.126;5.596;2023-11-21T02:29:34;12.98;;;10.35;;
17564;SDS011;62994;52.126;5.596;2023-11-21T02:32:01;12.98;;;10.07;;
17564;SDS011;62994;52.126;5.596;2023-11-21T02:34:28;13.48;;;10.88;;
17564;SDS011;62994;52.126;5.596;2023-11-21T02:36:55;12.55;;;9.73;;
17564;SDS011;62994;52.126;5.596;2023-11-21T02:39:22;16.60;;;10.60;;
17564;SDS011;62994;52.126;5.596;2023-11-21T02:41:51;12.68;;;9.98;;
17564;SDS011;62994;52.126;5.596;2023-11-21T02:44:18;11.85;;;9.65;;
17564;SDS011;62994;52.126;5.596;2023-11-21T02:46:45;12.32;;;10.02;;
17564;SDS011;62994;52.126;5.596;2023-11-21T02:49:12;14.85;;;10.15;;
17564;SDS011;62994;52.126;5.596;2023-11-21T02:51:39;10.38;;;9.45;;
17564;SDS011;62994;52.126;5.596;2023-11-21T02:54:06;12.20;;;9.32;;
17564;SDS011;62994;52.126;5.596;2023-11-21T02:56:34;12.18;;;9.80;;
17564;SDS011;62994;52.126;5.596;2023-11-21T02:59:02;11.82;;;9.45;;
17564;SDS011;62994;52.126;5.596;2023-11-21T03:01:30;15.77;;;9.20;;
17564;SDS011;62994;52.126;5.596;2023-11-21T03:03:57;11.65;;;9.10;;
17564;SDS011;62994;52.126;5.596;2023-11-21T03:06:24;13.32;;;9.57;;
17564;SDS011;62994;52.126;5.596;2023-11-21T03:08:51;11.30;;;9.10;;
17564;SDS011;62994;52.126;5.596;2023-11-21T03:11:18;8.48;;;7.72;;
17564;SDS011;62994;52.126;5.596;2023-11-21T03:13:44;11.80;;;9.73;;
17564;SDS011;62994;52.126;5.596;2023-11-21T03:16:13;9.60;;;8.23;;
17564;SDS011;62994;52.126;5.596;2023-11-21T03:18:40;9.13;;;8.40;;
17564;SDS011;62994;52.126;5.596;2023-11-21T03:21:07;9.77;;;8.57;;
17564;SDS011;62994;52.126;5.596;2023-11-21T03:23:35;12.32;;;8.73;;
17564;SDS011;62994;52.126;5.596;2023-11-21T03:26:11;11.65;;;8.70;;
17564;SDS011;62994;52.126;5.596;2023-11-21T03:28:38;9.20;;;8.32;;
17564;SDS011;62994;52.126;5.596;2023-11-21T03:31:05;9.30;;;8.38;;
17564;SDS011;62994;52.126;5.596;2023-11-21T03:33:35;10.75;;;8.13;;
17564;SDS011;62994;52.126;5.596;2023-11-21T03:36:02;9.55;;;8.60;;
17564;SDS011;62994;52.126;5.596;2023-11-21T03:38:29;10.00;;;8.82;;
17564;SDS011;62994;52.126;5.596;2023-11-21T03:40:56;12.75;;;8.98;;
17564;SDS011;62994;52.126;5.596;2023-11-21T03:43:23;9.55;;;8.57;;
17564;SDS011;62994;52.126;5.596;2023-11-21T03:45:50;9.10;;;8.20;;
17564;SDS011;62994;52.126;5.596;2023-11-21T03:48:17;8.45;;;7.57;;
17564;SDS011;62994;52.126;5.596;2023-11-21T03:50:45;12.77;;;8.45;;
17564;SDS011;62994;52.126;5.596;2023-11-21T03:53:13;11.75;;;8.40;;
17564;SDS011;62994;52.126;5.596;2023-11-21T03:55:40;13.50;;;8.60;;
17564;SDS011;62994;52.126;5.596;2023-11-21T03:58:06;16.50;;;8.77;;
17564;SDS011;62994;52.126;5.596;2023-11-21T04:00:38;8.52;;;7.70;;
17564;SDS011;62994;52.126;5.596;2023-11-21T04:03:05;8.38;;;7.68;;
17564;SDS011;62994;52.126;5.596;2023-11-21T04:05:32;12.25;;;8.27;;
17564;SDS011;62994;52.126;5.596;2023-11-21T04:08:05;9.82;;;7.70;;
17564;SDS011;62994;52.126;5.596;2023-11-21T04:10:32;9.68;;;8.32;;
17564;SDS011;62994;52.126;5.596;2023-11-21T04:12:59;7.68;;;6.70;;
17564;SDS011;62994;52.126;5.596;2023-11-21T04:15:27;8.73;;;7.93;;
17564;SDS011;62994;52.126;5.596;2023-11-21T04:17:53;9.88;;;8.23;;
17564;SDS011;62994;52.126;5.596;2023-11-21T04:20:21;11.30;;;9.65;;
17564;SDS011;62994;52.126;5.596;2023-11-21T04:22:48;10.77;;;8.52;;
17564;SDS011;62994;52.126;5.596;2023-11-21T04:25:17;16.30;;;8.40;;
17564;SDS011;62994;52.126;5.596;2023-11-21T04:27:44;8.93;;;8.02;;
17564;SDS011;62994;52.126;5.596;2023-11-21T04:30:12;11.15;;;8.73;;
17564;SDS011;62994;52.126;5.596;2023-11-21T04:32:41;8.75;;;7.85;;
17564;SDS011;62994;52.126;5.596;2023-11-21T04:35:08;9.50;;;8.55;;
17564;SDS011;62994;52.126;5.596;2023-11-21T04:37:35;11.38;;;8.00;;
17564;SDS011;62994;52.126;5.596;2023-11-21T04:40:03;13.93;;;8.57;;
17564;SDS011;62994;52.126;5.596;2023-11-21T04:42:34;16.23;;;8.60;;
17564;SDS011;62994;52.126;5.596;2023-11-21T04:45:01;10.70;;;8.63;;
17564;SDS011;62994;52.126;5.596;2023-11-21T04:47:30;11.63;;;8.23;;
17564;SDS011;62994;52.126;5.596;2023-11-21T04:49:57;9.95;;;8.85;;
17564;SDS011;62994;52.126;5.596;2023-11-21T04:52:25;9.65;;;8.75;;
17564;SDS011;62994;52.126;5.596;2023-11-21T04:54:52;8.98;;;8.13;;
17564;SDS011;62994;52.126;5.596;2023-11-21T04:57:20;12.73;;;9.00;;
17564;SDS011;62994;52.126;5.596;2023-11-21T04:59:48;10.02;;;8.93;;
17564;SDS011;62994;52.126;5.596;2023-11-21T05:02:16;12.65;;;8.70;;
17564;SDS011;62994;52.126;5.596;2023-11-21T05:04:49;13.10;;;9.05;;
17564;SDS011;62994;52.126;5.596;2023-11-21T05:07:16;12.85;;;9.10;;
17564;SDS011;62994;52.126;5.596;2023-11-21T05:09:43;12.35;;;9.23;;
17564;SDS011;62994;52.126;5.596;2023-11-21T05:12:11;17.70;;;9.32;;
17564;SDS011;62994;52.126;5.596;2023-11-21T05:14:37;13.98;;;9.57;;
17564;SDS011;62994;52.126;5.596;2023-11-21T05:17:05;18.60;;;9.15;;
17564;SDS011;62994;52.126;5.596;2023-11-21T05:19:33;11.02;;;9.30;;
17564;SDS011;62994;52.126;5.596;2023-11-21T05:22:01;12.25;;;9.57;;
17564;SDS011;62994;52.126;5.596;2023-11-21T05:24:28;13.38;;;9.25;;
17564;SDS011;62994;52.126;5.596;2023-11-21T05:26:55;10.88;;;8.52;;
17564;SDS011;62994;52.126;5.596;2023-11-21T05:29:22;15.70;;;9.20;;
17564;SDS011;62994;52.126;5.596;2023-11-21T05:31:50;18.23;;;10.18;;
17564;SDS011;62994;52.126;5.596;2023-11-21T05:34:19;13.15;;;10.60;;
17564;SDS011;62994;52.126;5.596;2023-11-21T05:36:49;12.93;;;8.45;;
17564;SDS011;62994;52.126;5.596;2023-11-21T05:39:16;9.63;;;8.68;;
17564;SDS011;62994;52.126;5.596;2023-11-21T05:41:43;15.25;;;9.30;;
17564;SDS011;62994;52.126;5.596;2023-11-21T05:44:11;11.50;;;9.35;;
17564;SDS011;62994;52.126;5.596;2023-11-21T05:46:39;17.63;;;10.40;;
17564;SDS011;62994;52.126;5.596;2023-11-21T05:49:08;22.70;;;10.70;;
17564;SDS011;62994;52.126;5.596;2023-11-21T05:51:37;17.40;;;10.55;;
17564;SDS011;62994;52.126;5.596;2023-11-21T05:54:04;20.35;;;11.07;;
17564;SDS011;62994;52.126;5.596;2023-11-21T05:56:31;14.48;;;10.50;;
17564;SDS011;62994;52.126;5.596;2023-11-21T05:58:58;25.70;;;10.57;;
17564;SDS011;62994;52.126;5.596;2023-11-21T06:01:25;15.27;;;9.40;;
17564;SDS011;62994;52.126;5.596;2023-11-21T06:03:53;18.15;;;10.25;;
17564;SDS011;62994;52.126;5.596;2023-11-21T06:06:23;15.02;;;10.57;;
17564;SDS011;62994;52.126;5.596;2023-11-21T06:08:52;23.38;;;11.15;;
17564;SDS011;62994;52.126;5.596;2023-11-21T06:11:19;15.85;;;11.07;;
17564;SDS011;62994;52.126;5.596;2023-11-21T06:13:46;17.10;;;10.50;;
17564;SDS011;62994;52.126;5.596;2023-11-21T06:16:13;17.88;;;10.90;;
17564;SDS011;62994;52.126;5.596;2023-11-21T06:18:42;17.98;;;10.75;;
17564;SDS011;62994;52.126;5.596;2023-11-21T06:21:09;16.35;;;11.27;;
17564;SDS011;62994;52.126;5.596;2023-11-21T06:23:36;20.13;;;11.43;;
17564;SDS011;62994;52.126;5.596;2023-11-21T06:26:05;17.13;;;11.30;;
17564;SDS011;62994;52.126;5.596;2023-11-21T06:28:34;21.42;;;11.40;;
17564;SDS011;62994;52.126;5.596;2023-11-21T06:31:01;18.52;;;10.95;;
17564;SDS011;62994;52.126;5.596;2023-11-21T06:33:30;17.20;;;10.75;;
17564;SDS011;62994;52.126;5.596;2023-11-21T06:35:57;16.77;;;10.00;;
17564;SDS011;62994;52.126;5.596;2023-11-21T06:38:24;18.48;;;10.40;;
17564;SDS011;62994;52.126;5.596;2023-11-21T06:40:54;17.20;;;10.20;;
17564;SDS011;62994;52.126;5.596;2023-11-21T06:43:23;17.73;;;10.45;;
17564;SDS011;62994;52.126;5.596;2023-11-21T06:45:50;13.43;;;10.52;;
17564;SDS011;62994;52.126;5.596;2023-11-21T06:48:18;15.75;;;9.63;;
17564;SDS011;62994;52.126;5.596;2023-11-21T06:50:45;14.20;;;10.90;;
17564;SDS011;62994;52.126;5.596;2023-11-21T06:53:12;13.82;;;10.65;;
17564;SDS011;62994;52.126;5.596;2023-11-21T06:55:40;17.08;;;10.27;;
17564;SDS011;62994;52.126;5.596;2023-11-21T06:58:07;17.83;;;10.38;;
17564;SDS011;62994;52.126;5.596;2023-11-21T07:00:35;11.45;;;9.90;;
17564;SDS011;62994;52.126;5.596;2023-11-21T07:03:02;11.65;;;10.40;;
17564;SDS011;62994;52.126;5.596;2023-11-21T07:05:30;15.10;;;10.05;;
17564;SDS011;62994;52.126;5.596;2023-11-21T07:08:01;14.23;;;10.30;;
17564;SDS011;62994;52.126;5.596;2023-11-21T07:10:29;11.63;;;10.48;;
17564;SDS011;62994;52.126;5.596;2023-11-21T07:12:56;13.43;;;10.15;;
17564;SDS011;62994;52.126;5.596;2023-11-21T07:15:23;11.98;;;10.20;;
17564;SDS011;62994;52.126;5.596;2023-11-21T07:17:52;13.68;;;9.98;;
17564;SDS011;62994;52.126;5.596;2023-11-21T07:20:19;10.70;;;9.45;;
17564;SDS011;62994;52.126;5.596;2023-11-21T07:22:46;13.57;;;10.73;;
17564;SDS011;62994;52.126;5.596;2023-11-21T07:25:13;16.30;;;11.15;;
17564;SDS011;62994;52.126;5.596;2023-11-21T07:27:41;19.83;;;11.95;;
17564;SDS011;62994;52.126;5.596;2023-11-21T07:30:11;15.88;;;10.68;;
17564;SDS011;62994;52.126;5.596;2023-11-21T07:32:44;14.43;;;10.70;;
17564;SDS011;62994;52.126;5.596;2023-11-21T07:35:14;14.43;;;10.00;;
17564;SDS011;62994;52.126;5.596;2023-11-21T07:37:41;16.52;;;9.70;;
17564;SDS011;62994;52.126;5.596;2023-11-21T07:40:09;11.32;;;10.13;;
17564;SDS011;62994;52.126;5.596;2023-11-21T07:42:36;13.93;;;10.55;;
17564;SDS011;62994;52.126;5.596;2023-11-21T07:45:04;18.52;;;11.20;;
17564;SDS011;62994;52.126;5.596;2023-11-21T07:47:32;16.63;;;11.27;;
17564;SDS011;62994;52.126;5.596;2023-11-21T07:50:04;13.77;;;10.38;;
17564;SDS011;62994;52.126;5.596;2023-11-21T07:52:34;12.93;;;10.40;;
17564;SDS011;62994;52.126;5.596;2023-11-21T07:55:01;14.10;;;10.45;;
17564;SDS011;62994;52.126;5.596;2023-11-21T07:57:28;13.52;;;9.27;;
17564;SDS011;62994;52.126;5.596;2023-11-21T07:59:55;18.25;;;9.70;;
17564;SDS011;62994;52.126;5.596;2023-11-21T08:02:22;13.93;;;10.35;;
17564;SDS011;62994;52.126;5.596;2023-11-21T08:04:51;17.35;;;10.95;;
17564;SDS011;62994;52.126;5.596;2023-11-21T08:07:18;20.60;;;9.80;;
17564;SDS011;62994;52.126;5.596;2023-11-21T08:09:46;13.50;;;10.45;;
17564;SDS011;62994;52.126;5.596;2023-11-21T08:12:15;14.65;;;10.30;;
17564;SDS011;62994;52.126;5.596;2023-11-21T08:14:46;13.45;;;10.02;;
17564;SDS011;62994;52.126;5.596;2023-11-21T08:17:13;14.23;;;10.30;;
17564;SDS011;62994;52.126;5.596;2023-11-21T08:19:40;13.35;;;10.15;;
17564;SDS011;62994;52.126;5.596;2023-11-21T08:22:07;18.55;;;11.50;;
17564;SDS011;62994;52.126;5.596;2023-11-21T08:24:34;14.45;;;10.80;;
17564;SDS011;62994;52.126;5.596;2023-11-21T08:27:02;17.42;;;10.75;;
17564;SDS011;62994;52.126;5.596;2023-11-21T08:29:32;12.80;;;10.65;;
17564;SDS011;62994;52.126;5.596;2023-11-21T08:31:59;20.90;;;10.90;;
17564;SDS011;62994;52.126;5.596;2023-11-21T08:34:26;12.07;;;10.02;;
17564;SDS011;62994;52.126;5.596;2023-11-21T08:36:53;13.10;;;10.27;;
17564;SDS011;62994;52.126;5.596;2023-11-21T08:39:20;12.30;;;10.65;;
17564;SDS011;62994;52.126;5.596;2023-11-21T08:41:49;13.43;;;9.75;;
17564;SDS011;62994;52.126;5.596;2023-11-21T08:44:18;17.45;;;11.02;;
17564;SDS011;62994;52.126;5.596;2023-11-21T08:46:45;12.05;;;10.88;;
17564;SDS011;62994;52.126;5.596;2023-11-21T08:49:14;17.83;;;11.07;;
17564;SDS011;62994;52.126;5.596;2023-11-21T08:51:43;21.63;;;11.80;;
17564;SDS011;62994;52.126;5.596;2023-11-21T08:54:16;18.25;;;10.90;;
17564;SDS011;62994;52.126;5.596;2023-11-21T08:56:43;20.92;;;10.75;;
17564;SDS011;62994;52.126;5.596;2023-11-21T08:59:11;17.80;;;11.20;;
17564;SDS011;62994;52.126;5.596;2023-11-21T09:01:41;24.60;;;12.68;;
17564;SDS011;62994;52.126;5.596;2023-11-21T09:04:08;17.23;;;12.43;;
17564;SDS011;62994;52.126;5.596;2023-11-21T09:06:35;24.70;;;13.10;;
17564;SDS011;62994;52.126;5.596;2023-11-21T09:09:02;26.77;;;13.10;;
17564;SDS011;62994;52.126;5.596;2023-11-21T09:11:30;21.75;;;12.50;;
17564;SDS011;62994;52.126;5.596;2023-11-21T09:13:58;19.92;;;12.85;;
17564;SDS011;62994;52.126;5.596;2023-11-21T09:16:25;15.57;;;11.18;;
17564;SDS011;62994;52.126;5.596;2023-11-21T09:18:54;16.48;;;12.10;;
17564;SDS011;62994;52.126;5.596;2023-11-21T09:21:21;21.60;;;12.32;;
17564;SDS011;62994;52.126;5.596;2023-11-21T09:23:48;17.35;;;12.70;;
17564;SDS011;62994;52.126;5.596;2023-11-21T09:26:15;17.85;;;12.82;;
17564;SDS011;62994;52.126;5.596;2023-11-21T09:28:43;21.63;;;13.85;;
17564;SDS011;62994;52.126;5.596;2023-11-21T09:31:12;21.40;;;12.18;;
17564;SDS011;62994;52.126;5.596;2023-11-21T09:33:41;21.55;;;13.05;;
17564;SDS011;62994;52.126;5.596;2023-11-21T09:36:12;18.40;;;12.77;;
17564;SDS011;62994;52.126;5.596;2023-11-21T09:38:39;22.13;;;12.73;;
17564;SDS011;62994;52.126;5.596;2023-11-21T09:41:09;19.25;;;12.77;;
17564;SDS011;62994;52.126;5.596;2023-11-21T09:43:44;17.25;;;11.57;;
17564;SDS011;62994;52.126;5.596;2023-11-21T09:46:13;16.27;;;12.25;;
17564;SDS011;62994;52.126;5.596;2023-11-21T09:48:46;13.75;;;10.93;;
17564;SDS011;62994;52.126;5.596;2023-11-21T09:51:17;14.45;;;11.50;;
17564;SDS011;62994;52.126;5.596;2023-11-21T09:53:46;13.02;;;11.07;;
17564;SDS011;62994;52.126;5.596;2023-11-21T09:56:17;12.80;;;10.88;;
17564;SDS011;62994;52.126;5.596;2023-11-21T09:58:50;15.40;;;11.40;;
17564;SDS011;62994;52.126;5.596;2023-11-21T10:01:18;11.88;;;10.07;;
17564;SDS011;62994;52.126;5.596;2023-11-21T10:03:47;13.32;;;10.63;;
17564;SDS011;62994;52.126;5.596;2023-11-21T10:06:14;10.93;;;9.75;;
17564;SDS011;62994;52.126;5.596;2023-11-21T10:08:43;10.70;;;9.60;;
17564;SDS011;62994;52.126;5.596;2023-11-21T10:11:11;11.40;;;10.13;;
17564;SDS011;62994;52.126;5.596;2023-11-21T10:13:40;13.23;;;10.13;;
17564;SDS011;62994;52.126;5.596;2023-11-21T10:16:08;12.07;;;9.82;;
17564;SDS011;62994;52.126;5.596;2023-11-21T10:18:39;12.93;;;9.80;;
17564;SDS011;62994;52.126;5.596;2023-11-21T10:21:06;11.13;;;9.80;;
17564;SDS011;62994;52.126;5.596;2023-11-21T10:23:34;10.73;;;9.38;;
17564;SDS011;62994;52.126;5.596;2023-11-21T10:26:02;12.45;;;9.73;;
17564;SDS011;62994;52.126;5.596;2023-11-21T10:28:35;11.18;;;9.05;;
17564;SDS011;62994;52.126;5.596;2023-11-21T10:31:06;10.35;;;9.30;;
17564;SDS011;62994;52.126;5.596;2023-11-21T10:33:33;12.20;;;9.20;;
17564;SDS011;62994;52.126;5.596;2023-11-21T10:36:00;11.85;;;9.50;;
17564;SDS011;62994;52.126;5.596;2023-11-21T10:38:27;10.90;;;9.25;;
17564;SDS011;62994;52.126;5.596;2023-11-21T10:40:55;10.60;;;8.95;;
17564;SDS011;62994;52.126;5.596;2023-11-21T10:43:25;10.90;;;9.07;;
17564;SDS011;62994;52.126;5.596;2023-11-21T10:45:52;14.48;;;9.95;;
17564;SDS011;62994;52.126;5.596;2023-11-21T10:48:24;18.42;;;10.13;;
17564;SDS011;62994;52.126;5.596;2023-11-21T10:50:52;11.02;;;9.13;;
17564;SDS011;62994;52.126;5.596;2023-11-21T10:53:19;12.07;;;9.30;;
17564;SDS011;62994;52.126;5.596;2023-11-21T10:55:46;14.10;;;9.02;;
17564;SDS011;62994;52.126;5.596;2023-11-21T10:58:14;8.82;;;8.02;;
17564;SDS011;62994;52.126;5.596;2023-11-21T11:00:43;9.82;;;8.38;;
17564;SDS011;62994;52.126;5.596;2023-11-21T11:03:11;11.93;;;8.55;;
17564;SDS011;62994;52.126;5.596;2023-11-21T11:05:39;8.23;;;7.43;;
17564;SDS011;62994;52.126;5.596;2023-11-21T11:08:12;17.25;;;8.88;;
17564;SDS011;62994;52.126;5.596;2023-11-21T11:10:43;8.10;;;7.38;;
17564;SDS011;62994;52.126;5.596;2023-11-21T11:13:11;8.60;;;7.78;;
17564;SDS011;62994;52.126;5.596;2023-11-21T11:15:40;9.15;;;8.23;;
17564;SDS011;62994;52.126;5.596;2023-11-21T11:18:09;10.43;;;7.78;;
17564;SDS011;62994;52.126;5.596;2023-11-21T11:20:38;10.80;;;7.53;;
17564;SDS011;62994;52.126;5.596;2023-11-21T11:23:12;11.32;;;7.63;;
17564;SDS011;62994;52.126;5.596;2023-11-21T11:25:55;9.15;;;8.10;;
17564;SDS011;62994;52.126;5.596;2023-11-21T11:28:43;10.13;;;8.52;;
17564;SDS011;62994;52.126;5.596;2023-11-21T11:31:14;9.70;;;7.30;;
17564;SDS011;62994;52.126;5.596;2023-11-21T11:33:57;10.52;;;7.45;;
17564;SDS011;62994;52.126;5.596;2023-11-21T11:36:31;7.90;;;6.95;;
17564;SDS011;62994;52.126;5.596;2023-11-21T11:39:04;7.60;;;6.88;;
17564;SDS011;62994;52.126;5.596;2023-11-21T11:41:55;7.32;;;6.65;;
17564;SDS011;62994;52.126;5.596;2023-11-21T11:47:22;10.52;;;7.53;;
17564;SDS011;62994;52.126;5.596;2023-11-21T11:52:42;8.93;;;7.90;;
17564;SDS011;62994;52.126;5.596;2023-11-21T11:55:10;7.82;;;7.13;;
17564;SDS011;62994;52.126;5.596;2023-11-21T11:57:38;7.55;;;6.85;;
17564;SDS011;62994;52.126;5.596;2023-11-21T12:00:09;7.30;;;6.70;;
17564;SDS011;62994;52.126;5.596;2023-11-21T12:02:41;9.35;;;7.47;;
17564;SDS011;62994;52.126;5.596;2023-11-21T12:05:10;11.43;;;8.55;;
17564;SDS011;62994;52.126;5.596;2023-11-21T12:07:43;13.90;;;8.80;;
17564;SDS011;62994;52.126;5.596;2023-11-21T12:10:11;12.40;;;9.15;;
17564;SDS011;62994;52.126;5.596;2023-11-21T12:12:46;10.02;;;8.90;;
17564;SDS011;62994;52.126;5.596;2023-11-21T12:15:14;12.25;;;9.40;;
17564;SDS011;62994;52.126;5.596;2023-11-21T12:17:42;9.90;;;8.75;;
17564;SDS011;62994;52.126;5.596;2023-11-21T12:20:10;9.45;;;8.60;;
17564;SDS011;62994;52.126;5.596;2023-11-21T12:22:43;11.25;;;8.05;;
17564;SDS011;62994;52.126;5.596;2023-11-21T12:25:13;9.25;;;8.32;;
17564;SDS011;62994;52.126;5.596;2023-11-21T12:27:44;10.05;;;9.15;;
17564;SDS011;62994;52.126;5.596;2023-11-21T12:30:12;8.77;;;8.07;;
17564;SDS011;62994;52.126;5.596;2023-11-21T12:32:41;13.45;;;8.50;;
17564;SDS011;62994;52.126;5.596;2023-11-21T12:35:09;8.82;;;7.95;;
17564;SDS011;62994;52.126;5.596;2023-11-21T12:37:38;8.55;;;7.75;;
17564;SDS011;62994;52.126;5.596;2023-11-21T12:40:08;11.45;;;8.55;;
17564;SDS011;62994;52.126;5.596;2023-11-21T12:42:37;9.60;;;8.00;;
17564;SDS011;62994;52.126;5.596;2023-11-21T12:45:07;9.35;;;8.48;;
17564;SDS011;62994;52.126;5.596;2023-11-21T12:47:45;8.70;;;7.85;;
17564;SDS011;62994;52.126;5.596;2023-11-21T12:50:13;15.60;;;8.70;;
17564;SDS011;62994;52.126;5.596;2023-11-21T12:52:43;11.25;;;9.10;;
17564;SDS011;62994;52.126;5.596;2023-11-21T12:55:13;9.98;;;8.23;;
17564;SDS011;62994;52.126;5.596;2023-11-21T12:57:42;9.70;;;8.90;;
17564;SDS011;62994;52.126;5.596;2023-11-21T13:00:11;9.93;;;9.02;;
17564;SDS011;62994;52.126;5.596;2023-11-21T13:02:52;9.15;;;8.30;;
17564;SDS011;62994;52.126;5.596;2023-11-21T13:05:28;9.38;;;8.50;;
17564;SDS011;62994;52.126;5.596;2023-11-21T13:07:58;9.40;;;8.50;;
17564;SDS011;62994;52.126;5.596;2023-11-21T13:10:29;9.43;;;8.48;;
17564;SDS011;62994;52.126;5.596;2023-11-21T13:12:57;9.45;;;8.55;;
17564;SDS011;62994;52.126;5.596;2023-11-21T13:15:25;9.98;;;8.82;;
17564;SDS011;62994;52.126;5.596;2023-11-21T13:17:53;8.20;;;7.60;;
17564;SDS011;62994;52.126;5.596;2023-11-21T13:20:21;8.38;;;7.57;;
17564;SDS011;62994;52.126;5.596;2023-11-21T13:22:55;8.10;;;7.40;;
17564;SDS011;62994;52.126;5.596;2023-11-21T13:25:26;8.82;;;7.43;;
17564;SDS011;62994;52.126;5.596;2023-11-21T13:27:54;7.25;;;6.65;;
17564;SDS011;62994;52.126;5.596;2023-11-21T13:30:21;6.80;;;6.15;;
17564;SDS011;62994;52.126;5.596;2023-11-21T13:32:52;5.70;;;5.30;;
17564;SDS011;62994;52.126;5.596;2023-11-21T13:35:22;4.55;;;4.20;;
17564;SDS011;62994;52.126;5.596;2023-11-21T13:38:02;4.35;;;3.95;;
17564;SDS011;62994;52.126;5.596;2023-11-21T13:40:31;4.22;;;3.92;;
17564;SDS011;62994;52.126;5.596;2023-11-21T13:43:05;3.75;;;3.55;;
17564;SDS011;62994;52.126;5.596;2023-11-21T13:45:35;3.70;;;3.50;;
17564;SDS011;62994;52.126;5.596;2023-11-21T13:48:01;4.43;;;4.03;;
17564;SDS011;62994;52.126;5.596;2023-11-21T13:50:36;4.80;;;4.40;;
17564;SDS011;62994;52.126;5.596;2023-11-21T13:53:05;4.38;;;4.07;;
17564;SDS011;62994;52.126;5.596;2023-11-21T13:55:43;4.25;;;3.90;;
17564;SDS011;62994;52.126;5.596;2023-11-21T13:58:11;5.15;;;4.75;;
17564;SDS011;62994;52.126;5.596;2023-11-21T14:00:44;5.72;;;5.22;;
17564;SDS011;62994;52.126;5.596;2023-11-21T14:03:12;5.45;;;4.95;;
17564;SDS011;62994;52.126;5.596;2023-11-21T14:05:47;5.70;;;5.40;;
17564;SDS011;62994;52.126;5.596;2023-11-21T14:08:18;6.72;;;6.22;;
17564;SDS011;62994;52.126;5.596;2023-11-21T14:10:46;5.72;;;5.22;;
17564;SDS011;62994;52.126;5.596;2023-11-21T14:13:20;7.07;;;6.38;;
17564;SDS011;62994;52.126;5.596;2023-11-21T14:15:48;6.40;;;5.90;;
17564;SDS011;62994;52.126;5.596;2023-11-21T14:18:17;8.00;;;7.25;;
17564;SDS011;62994;52.126;5.596;2023-11-21T14:20:52;11.75;;;8.00;;
17564;SDS011;62994;52.126;5.596;2023-11-21T14:23:26;8.57;;;7.65;;
17564;SDS011;62994;52.126;5.596;2023-11-21T14:25:55;10.20;;;9.15;;
17564;SDS011;62994;52.126;5.596;2023-11-21T14:28:22;10.60;;;9.27;;
17564;SDS011;62994;52.126;5.596;2023-11-21T14:30:49;16.20;;;8.40;;
17564;SDS011;62994;52.126;5.596;2023-11-21T14:33:16;9.65;;;8.75;;
17564;SDS011;62994;52.126;5.596;2023-11-21T14:35:43;11.57;;;8.60;;
17564;SDS011;62994;52.126;5.596;2023-11-21T14:38:12;8.73;;;7.90;;
17564;SDS011;62994;52.126;5.596;2023-11-21T14:40:40;8.98;;;8.18;;
17564;SDS011;62994;52.126;5.596;2023-11-21T14:43:07;10.82;;;9.68;;
17564;SDS011;62994;52.126;5.596;2023-11-21T14:45:34;10.18;;;9.20;;
17564;SDS011;62994;52.126;5.596;2023-11-21T14:48:01;10.57;;;8.82;;